sensor_id;sensor_type;location;lat;lon;timestamp;P1;durP1;ratioP1;P2;durP2;ratioP2
15476;SDS011;7840;42.702;23.296;2022-08-06T00:00:52;8.02;;;6.22;;
15476;SDS011;7840;42.702;23.296;2022-08-06T00:03:20;7.32;;;6.00;;
15476;SDS011;7840;42.702;23.296;2022-08-06T00:05:47;11.07;;;7.20;;
15476;SDS011;7840;42.702;23.296;2022-08-06T00:08:15;7.03;;;6.43;;
15476;SDS011;7840;42.702;23.296;2022-08-06T00:10:44;7.95;;;6.82;;
15476;SDS011;7840;42.702;23.296;2022-08-06T00:13:12;9.73;;;6.80;;
15476;SDS011;7840;42.702;23.296;2022-08-06T00:15:39;7.15;;;6.45;;
15476;SDS011;7840;42.702;23.296;2022-08-06T00:18:07;7.20;;;6.45;;
15476;SDS011;7840;42.702;23.296;2022-08-06T00:20:34;10.77;;;6.65;;
15476;SDS011;7840;42.702;23.296;2022-08-06T00:23:02;6.75;;;5.78;;
15476;SDS011;7840;42.702;23.296;2022-08-06T00:25:32;9.30;;;6.00;;
15476;SDS011;7840;42.702;23.296;2022-08-06T00:28:01;6.32;;;5.72;;
15476;SDS011;7840;42.702;23.296;2022-08-06T00:30:30;6.68;;;5.72;;
15476;SDS011;7840;42.702;23.296;2022-08-06T00:33:17;7.47;;;5.93;;
15476;SDS011;7840;42.702;23.296;2022-08-06T00:35:44;6.10;;;5.50;;
15476;SDS011;7840;42.702;23.296;2022-08-06T00:38:12;6.15;;;5.38;;
15476;SDS011;7840;42.702;23.296;2022-08-06T00:40:40;7.20;;;5.88;;
15476;SDS011;7840;42.702;23.296;2022-08-06T00:43:10;6.38;;;5.88;;
15476;SDS011;7840;42.702;23.296;2022-08-06T00:45:38;8.95;;;5.80;;
15476;SDS011;7840;42.702;23.296;2022-08-06T00:48:06;8.13;;;6.93;;
15476;SDS011;7840;42.702;23.296;2022-08-06T00:50:34;7.53;;;6.43;;
15476;SDS011;7840;42.702;23.296;2022-08-06T00:53:05;8.45;;;7.20;;
15476;SDS011;7840;42.702;23.296;2022-08-06T00:55:32;8.65;;;7.85;;
15476;SDS011;7840;42.702;23.296;2022-08-06T00:58:00;12.05;;;7.32;;
15476;SDS011;7840;42.702;23.296;2022-08-06T01:00:29;10.77;;;7.80;;
15476;SDS011;7840;42.702;23.296;2022-08-06T01:03:02;9.48;;;7.50;;
15476;SDS011;7840;42.702;23.296;2022-08-06T01:05:29;8.02;;;7.25;;
15476;SDS011;7840;42.702;23.296;2022-08-06T01:07:57;10.68;;;7.45;;
15476;SDS011;7840;42.702;23.296;2022-08-06T01:10:28;10.48;;;7.47;;
15476;SDS011;7840;42.702;23.296;2022-08-06T01:13:12;11.63;;;7.70;;
15476;SDS011;7840;42.702;23.296;2022-08-06T01:15:42;9.77;;;7.22;;
15476;SDS011;7840;42.702;23.296;2022-08-06T01:18:16;8.73;;;7.28;;
15476;SDS011;7840;42.702;23.296;2022-08-06T01:20:51;8.48;;;7.68;;
15476;SDS011;7840;42.702;23.296;2022-08-06T01:23:45;9.10;;;7.90;;
15476;SDS011;7840;42.702;23.296;2022-08-06T01:26:25;9.05;;;7.97;;
15476;SDS011;7840;42.702;23.296;2022-08-06T01:31:51;8.60;;;7.72;;
15476;SDS011;7840;42.702;23.296;2022-08-06T01:34:23;12.73;;;8.32;;
15476;SDS011;7840;42.702;23.296;2022-08-06T01:37:12;10.13;;;8.02;;
15476;SDS011;7840;42.702;23.296;2022-08-06T01:39:43;13.27;;;7.68;;
15476;SDS011;7840;42.702;23.296;2022-08-06T01:42:15;8.02;;;7.22;;
15476;SDS011;7840;42.702;23.296;2022-08-06T01:44:46;7.63;;;6.80;;
15476;SDS011;7840;42.702;23.296;2022-08-06T01:47:18;7.30;;;6.70;;
15476;SDS011;7840;42.702;23.296;2022-08-06T01:49:50;7.13;;;6.32;;
15476;SDS011;7840;42.702;23.296;2022-08-06T01:52:21;7.15;;;6.55;;
15476;SDS011;7840;42.702;23.296;2022-08-06T01:54:51;6.63;;;6.13;;
15476;SDS011;7840;42.702;23.296;2022-08-06T01:57:23;8.85;;;5.90;;
15476;SDS011;7840;42.702;23.296;2022-08-06T01:59:54;7.55;;;6.18;;
15476;SDS011;7840;42.702;23.296;2022-08-06T02:02:24;6.00;;;5.50;;
15476;SDS011;7840;42.702;23.296;2022-08-06T02:04:55;7.85;;;5.90;;
15476;SDS011;7840;42.702;23.296;2022-08-06T02:07:26;12.15;;;6.50;;
15476;SDS011;7840;42.702;23.296;2022-08-06T02:09:57;6.43;;;5.82;;
15476;SDS011;7840;42.702;23.296;2022-08-06T02:12:28;8.55;;;6.75;;
15476;SDS011;7840;42.702;23.296;2022-08-06T02:14:59;6.85;;;6.32;;
15476;SDS011;7840;42.702;23.296;2022-08-06T02:17:31;7.00;;;6.30;;
15476;SDS011;7840;42.702;23.296;2022-08-06T02:20:04;6.72;;;6.05;;
15476;SDS011;7840;42.702;23.296;2022-08-06T02:22:38;8.50;;;6.82;;
15476;SDS011;7840;42.702;23.296;2022-08-06T02:25:08;7.78;;;7.05;;
15476;SDS011;7840;42.702;23.296;2022-08-06T02:27:40;6.85;;;6.35;;
15476;SDS011;7840;42.702;23.296;2022-08-06T02:30:12;7.43;;;6.32;;
15476;SDS011;7840;42.702;23.296;2022-08-06T02:32:40;7.10;;;6.50;;
15476;SDS011;7840;42.702;23.296;2022-08-06T02:35:18;8.27;;;6.80;;
15476;SDS011;7840;42.702;23.296;2022-08-06T02:37:48;7.45;;;6.75;;
15476;SDS011;7840;42.702;23.296;2022-08-06T02:40:23;7.28;;;6.57;;
15476;SDS011;7840;42.702;23.296;2022-08-06T02:43:03;7.63;;;6.82;;
15476;SDS011;7840;42.702;23.296;2022-08-06T02:45:36;7.10;;;6.40;;
15476;SDS011;7840;42.702;23.296;2022-08-06T02:48:15;9.88;;;6.80;;
15476;SDS011;7840;42.702;23.296;2022-08-06T02:50:49;6.88;;;5.85;;
15476;SDS011;7840;42.702;23.296;2022-08-06T02:53:19;9.82;;;6.53;;
15476;SDS011;7840;42.702;23.296;2022-08-06T02:55:52;7.13;;;6.43;;
15476;SDS011;7840;42.702;23.296;2022-08-06T02:58:28;6.40;;;5.88;;
15476;SDS011;7840;42.702;23.296;2022-08-06T03:01:05;8.60;;;6.63;;
15476;SDS011;7840;42.702;23.296;2022-08-06T03:03:36;11.30;;;6.90;;
15476;SDS011;7840;42.702;23.296;2022-08-06T03:06:07;7.43;;;6.80;;
15476;SDS011;7840;42.702;23.296;2022-08-06T03:08:37;7.43;;;6.72;;
15476;SDS011;7840;42.702;23.296;2022-08-06T03:11:06;7.00;;;6.40;;
15476;SDS011;7840;42.702;23.296;2022-08-06T03:13:36;7.22;;;6.53;;
15476;SDS011;7840;42.702;23.296;2022-08-06T03:16:06;7.05;;;6.43;;
15476;SDS011;7840;42.702;23.296;2022-08-06T03:18:34;7.30;;;6.60;;
15476;SDS011;7840;42.702;23.296;2022-08-06T03:21:03;7.28;;;6.60;;
15476;SDS011;7840;42.702;23.296;2022-08-06T03:23:33;7.05;;;6.35;;
15476;SDS011;7840;42.702;23.296;2022-08-06T03:26:05;6.65;;;6.00;;
15476;SDS011;7840;42.702;23.296;2022-08-06T03:31:32;9.85;;;6.40;;
15476;SDS011;7840;42.702;23.296;2022-08-06T03:34:00;7.45;;;6.63;;
15476;SDS011;7840;42.702;23.296;2022-08-06T03:36:30;7.70;;;6.90;;
15476;SDS011;7840;42.702;23.296;2022-08-06T03:39:00;9.07;;;6.47;;
15476;SDS011;7840;42.702;23.296;2022-08-06T03:41:32;7.75;;;7.00;;
15476;SDS011;7840;42.702;23.296;2022-08-06T03:44:02;8.60;;;6.55;;
15476;SDS011;7840;42.702;23.296;2022-08-06T03:46:34;7.47;;;6.75;;
15476;SDS011;7840;42.702;23.296;2022-08-06T03:49:05;7.32;;;6.65;;
15476;SDS011;7840;42.702;23.296;2022-08-06T03:51:35;7.15;;;6.55;;
15476;SDS011;7840;42.702;23.296;2022-08-06T03:54:04;7.85;;;7.15;;
15476;SDS011;7840;42.702;23.296;2022-08-06T03:56:35;12.55;;;7.38;;
15476;SDS011;7840;42.702;23.296;2022-08-06T03:59:05;10.77;;;6.90;;
15476;SDS011;7840;42.702;23.296;2022-08-06T04:01:36;12.57;;;7.07;;
15476;SDS011;7840;42.702;23.296;2022-08-06T04:04:15;7.47;;;6.85;;
15476;SDS011;7840;42.702;23.296;2022-08-06T04:06:44;9.38;;;7.15;;
15476;SDS011;7840;42.702;23.296;2022-08-06T04:09:13;10.52;;;7.25;;
15476;SDS011;7840;42.702;23.296;2022-08-06T04:11:40;8.30;;;7.50;;
15476;SDS011;7840;42.702;23.296;2022-08-06T04:14:09;8.43;;;7.15;;
15476;SDS011;7840;42.702;23.296;2022-08-06T04:16:40;7.35;;;6.75;;
15476;SDS011;7840;42.702;23.296;2022-08-06T04:19:09;8.27;;;7.22;;
15476;SDS011;7840;42.702;23.296;2022-08-06T04:21:39;8.70;;;7.75;;
15476;SDS011;7840;42.702;23.296;2022-08-06T04:24:07;8.48;;;7.65;;
15476;SDS011;7840;42.702;23.296;2022-08-06T04:26:34;9.27;;;7.68;;
15476;SDS011;7840;42.702;23.296;2022-08-06T04:29:06;7.88;;;7.18;;
15476;SDS011;7840;42.702;23.296;2022-08-06T04:31:37;9.20;;;7.70;;
15476;SDS011;7840;42.702;23.296;2022-08-06T04:34:10;10.77;;;8.18;;
15476;SDS011;7840;42.702;23.296;2022-08-06T04:36:39;9.73;;;8.20;;
15476;SDS011;7840;42.702;23.296;2022-08-06T04:39:07;11.25;;;8.73;;
15476;SDS011;7840;42.702;23.296;2022-08-06T04:41:36;8.40;;;7.53;;
15476;SDS011;7840;42.702;23.296;2022-08-06T04:44:14;17.02;;;8.68;;
15476;SDS011;7840;42.702;23.296;2022-08-06T04:46:47;8.70;;;7.90;;
15476;SDS011;7840;42.702;23.296;2022-08-06T04:49:18;11.30;;;8.00;;
15476;SDS011;7840;42.702;23.296;2022-08-06T04:51:45;12.40;;;8.50;;
15476;SDS011;7840;42.702;23.296;2022-08-06T04:54:14;8.63;;;7.78;;
15476;SDS011;7840;42.702;23.296;2022-08-06T04:56:52;10.75;;;7.80;;
15476;SDS011;7840;42.702;23.296;2022-08-06T04:59:20;7.13;;;6.53;;
15476;SDS011;7840;42.702;23.296;2022-08-06T05:01:49;9.52;;;8.10;;
15476;SDS011;7840;42.702;23.296;2022-08-06T05:04:17;11.73;;;8.02;;
15476;SDS011;7840;42.702;23.296;2022-08-06T05:06:46;8.88;;;8.00;;
15476;SDS011;7840;42.702;23.296;2022-08-06T05:09:22;9.00;;;8.13;;
15476;SDS011;7840;42.702;23.296;2022-08-06T05:11:52;8.05;;;7.25;;
15476;SDS011;7840;42.702;23.296;2022-08-06T05:14:24;10.10;;;7.22;;
15476;SDS011;7840;42.702;23.296;2022-08-06T05:16:57;13.32;;;7.07;;
15476;SDS011;7840;42.702;23.296;2022-08-06T05:19:29;7.47;;;6.88;;
15476;SDS011;7840;42.702;23.296;2022-08-06T05:22:00;7.90;;;7.20;;
15476;SDS011;7840;42.702;23.296;2022-08-06T05:24:31;9.93;;;7.07;;
15476;SDS011;7840;42.702;23.296;2022-08-06T05:26:59;9.18;;;7.45;;
15476;SDS011;7840;42.702;23.296;2022-08-06T05:29:27;14.07;;;7.13;;
15476;SDS011;7840;42.702;23.296;2022-08-06T05:31:58;7.93;;;7.03;;
15476;SDS011;7840;42.702;23.296;2022-08-06T05:34:29;8.45;;;6.88;;
15476;SDS011;7840;42.702;23.296;2022-08-06T05:36:56;7.72;;;6.78;;
15476;SDS011;7840;42.702;23.296;2022-08-06T05:39:24;9.52;;;7.43;;
15476;SDS011;7840;42.702;23.296;2022-08-06T05:41:52;10.50;;;7.25;;
15476;SDS011;7840;42.702;23.296;2022-08-06T05:44:20;7.70;;;6.82;;
15476;SDS011;7840;42.702;23.296;2022-08-06T05:46:50;7.75;;;7.07;;
15476;SDS011;7840;42.702;23.296;2022-08-06T05:49:36;11.57;;;6.95;;
15476;SDS011;7840;42.702;23.296;2022-08-06T05:52:31;7.97;;;6.25;;
15476;SDS011;7840;42.702;23.296;2022-08-06T05:55:08;8.90;;;7.03;;
15476;SDS011;7840;42.702;23.296;2022-08-06T05:57:46;7.70;;;6.90;;
15476;SDS011;7840;42.702;23.296;2022-08-06T06:00:17;11.15;;;6.88;;
15476;SDS011;7840;42.702;23.296;2022-08-06T06:02:47;7.45;;;6.72;;
15476;SDS011;7840;42.702;23.296;2022-08-06T06:05:20;7.40;;;5.88;;
15476;SDS011;7840;42.702;23.296;2022-08-06T06:07:49;6.63;;;6.07;;
15476;SDS011;7840;42.702;23.296;2022-08-06T06:10:17;7.47;;;6.72;;
15476;SDS011;7840;42.702;23.296;2022-08-06T06:12:47;8.75;;;6.05;;
15476;SDS011;7840;42.702;23.296;2022-08-06T06:15:16;6.88;;;6.20;;
15476;SDS011;7840;42.702;23.296;2022-08-06T06:17:57;6.05;;;5.40;;
15476;SDS011;7840;42.702;23.296;2022-08-06T06:20:35;5.75;;;5.25;;
15476;SDS011;7840;42.702;23.296;2022-08-06T06:23:14;6.20;;;5.60;;
15476;SDS011;7840;42.702;23.296;2022-08-06T06:25:46;6.93;;;5.22;;
15476;SDS011;7840;42.702;23.296;2022-08-06T06:28:26;8.90;;;6.30;;
15476;SDS011;7840;42.702;23.296;2022-08-06T06:31:01;5.70;;;5.07;;
15476;SDS011;7840;42.702;23.296;2022-08-06T06:33:37;5.75;;;5.25;;
15476;SDS011;7840;42.702;23.296;2022-08-06T06:36:15;6.20;;;5.60;;
15476;SDS011;7840;42.702;23.296;2022-08-06T06:38:51;8.48;;;5.97;;
15476;SDS011;7840;42.702;23.296;2022-08-06T06:41:33;7.15;;;6.32;;
15476;SDS011;7840;42.702;23.296;2022-08-06T06:44:09;8.00;;;6.70;;
15476;SDS011;7840;42.702;23.296;2022-08-06T06:46:45;9.60;;;5.50;;
15476;SDS011;7840;42.702;23.296;2022-08-06T06:49:21;8.52;;;5.75;;
15476;SDS011;7840;42.702;23.296;2022-08-06T06:51:56;6.05;;;5.50;;
15476;SDS011;7840;42.702;23.296;2022-08-06T06:54:35;6.32;;;5.43;;
15476;SDS011;7840;42.702;23.296;2022-08-06T06:57:20;8.27;;;5.30;;
15476;SDS011;7840;42.702;23.296;2022-08-06T07:00:28;5.85;;;5.28;;
15476;SDS011;7840;42.702;23.296;2022-08-06T07:02:58;6.93;;;5.80;;
15476;SDS011;7840;42.702;23.296;2022-08-06T07:05:28;7.78;;;5.25;;
15476;SDS011;7840;42.702;23.296;2022-08-06T07:07:59;5.90;;;5.30;;
15476;SDS011;7840;42.702;23.296;2022-08-06T07:10:29;5.75;;;5.25;;
15476;SDS011;7840;42.702;23.296;2022-08-06T07:13:14;9.02;;;5.40;;
15476;SDS011;7840;42.702;23.296;2022-08-06T07:15:51;6.53;;;5.20;;
15476;SDS011;7840;42.702;23.296;2022-08-06T07:18:21;5.97;;;5.47;;
15476;SDS011;7840;42.702;23.296;2022-08-06T07:20:53;7.57;;;5.75;;
15476;SDS011;7840;42.702;23.296;2022-08-06T07:23:26;8.55;;;5.82;;
15476;SDS011;7840;42.702;23.296;2022-08-06T07:26:12;7.47;;;5.03;;
15476;SDS011;7840;42.702;23.296;2022-08-06T07:28:42;7.10;;;5.60;;
15476;SDS011;7840;42.702;23.296;2022-08-06T07:31:13;6.05;;;5.45;;
15476;SDS011;7840;42.702;23.296;2022-08-06T07:33:42;6.78;;;5.03;;
15476;SDS011;7840;42.702;23.296;2022-08-06T07:36:12;9.45;;;5.47;;
15476;SDS011;7840;42.702;23.296;2022-08-06T07:38:43;9.10;;;5.57;;
15476;SDS011;7840;42.702;23.296;2022-08-06T07:41:12;6.68;;;5.40;;
15476;SDS011;7840;42.702;23.296;2022-08-06T07:43:42;7.00;;;5.10;;
15476;SDS011;7840;42.702;23.296;2022-08-06T07:46:20;8.23;;;5.13;;
15476;SDS011;7840;42.702;23.296;2022-08-06T07:48:52;7.25;;;5.63;;
15476;SDS011;7840;42.702;23.296;2022-08-06T07:51:23;7.32;;;5.18;;
15476;SDS011;7840;42.702;23.296;2022-08-06T07:53:54;8.43;;;5.47;;
15476;SDS011;7840;42.702;23.296;2022-08-06T07:56:23;7.60;;;5.22;;
15476;SDS011;7840;42.702;23.296;2022-08-06T07:58:54;7.82;;;5.10;;
15476;SDS011;7840;42.702;23.296;2022-08-06T08:01:25;6.18;;;5.47;;
15476;SDS011;7840;42.702;23.296;2022-08-06T08:03:55;6.25;;;4.72;;
15476;SDS011;7840;42.702;23.296;2022-08-06T08:06:41;6.90;;;4.68;;
15476;SDS011;7840;42.702;23.296;2022-08-06T08:09:10;7.75;;;4.50;;
15476;SDS011;7840;42.702;23.296;2022-08-06T08:11:40;5.28;;;4.60;;
15476;SDS011;7840;42.702;23.296;2022-08-06T08:14:09;8.70;;;5.03;;
15476;SDS011;7840;42.702;23.296;2022-08-06T08:16:39;4.80;;;4.40;;
15476;SDS011;7840;42.702;23.296;2022-08-06T08:19:20;5.47;;;4.50;;
15476;SDS011;7840;42.702;23.296;2022-08-06T08:21:49;5.18;;;4.68;;
15476;SDS011;7840;42.702;23.296;2022-08-06T08:24:17;6.97;;;4.68;;
15476;SDS011;7840;42.702;23.296;2022-08-06T08:26:45;5.43;;;4.25;;
15476;SDS011;7840;42.702;23.296;2022-08-06T08:29:13;4.35;;;3.95;;
15476;SDS011;7840;42.702;23.296;2022-08-06T08:31:42;3.65;;;3.33;;
15476;SDS011;7840;42.702;23.296;2022-08-06T08:34:09;4.45;;;4.05;;
15476;SDS011;7840;42.702;23.296;2022-08-06T08:36:37;4.28;;;3.58;;
15476;SDS011;7840;42.702;23.296;2022-08-06T08:39:05;4.22;;;3.83;;
15476;SDS011;7840;42.702;23.296;2022-08-06T08:41:34;4.45;;;4.05;;
15476;SDS011;7840;42.702;23.296;2022-08-06T08:44:06;6.32;;;4.35;;
15476;SDS011;7840;42.702;23.296;2022-08-06T08:46:35;4.88;;;3.63;;
15476;SDS011;7840;42.702;23.296;2022-08-06T08:49:07;5.30;;;4.20;;
15476;SDS011;7840;42.702;23.296;2022-08-06T08:51:40;4.50;;;3.55;;
15476;SDS011;7840;42.702;23.296;2022-08-06T08:54:11;8.95;;;4.47;;
15476;SDS011;7840;42.702;23.296;2022-08-06T08:56:43;6.03;;;4.00;;
15476;SDS011;7840;42.702;23.296;2022-08-06T08:59:40;5.45;;;4.40;;
15476;SDS011;7840;42.702;23.296;2022-08-06T09:02:09;5.45;;;3.90;;
15476;SDS011;7840;42.702;23.296;2022-08-06T09:04:41;4.30;;;3.80;;
15476;SDS011;7840;42.702;23.296;2022-08-06T09:07:09;5.95;;;4.20;;
15476;SDS011;7840;42.702;23.296;2022-08-06T09:09:37;4.60;;;4.10;;
15476;SDS011;7840;42.702;23.296;2022-08-06T09:12:05;6.63;;;4.45;;
15476;SDS011;7840;42.702;23.296;2022-08-06T09:14:34;4.35;;;3.95;;
15476;SDS011;7840;42.702;23.296;2022-08-06T09:17:03;6.28;;;3.85;;
15476;SDS011;7840;42.702;23.296;2022-08-06T09:19:37;5.20;;;3.88;;
15476;SDS011;7840;42.702;23.296;2022-08-06T09:22:06;6.30;;;4.32;;
15476;SDS011;7840;42.702;23.296;2022-08-06T09:24:38;7.85;;;3.95;;
15476;SDS011;7840;42.702;23.296;2022-08-06T09:27:07;5.10;;;3.55;;
15476;SDS011;7840;42.702;23.296;2022-08-06T09:29:36;4.30;;;3.80;;
15476;SDS011;7840;42.702;23.296;2022-08-06T09:32:17;6.97;;;5.15;;
15476;SDS011;7840;42.702;23.296;2022-08-06T09:35:15;3.70;;;3.28;;
15476;SDS011;7840;42.702;23.296;2022-08-06T09:37:46;3.00;;;2.80;;
15476;SDS011;7840;42.702;23.296;2022-08-06T09:40:16;3.70;;;3.35;;
15476;SDS011;7840;42.702;23.296;2022-08-06T09:42:46;4.55;;;3.53;;
15476;SDS011;7840;42.702;23.296;2022-08-06T09:45:16;3.85;;;3.45;;
15476;SDS011;7840;42.702;23.296;2022-08-06T09:47:47;3.88;;;3.13;;
15476;SDS011;7840;42.702;23.296;2022-08-06T09:50:15;3.90;;;3.22;;
15476;SDS011;7840;42.702;23.296;2022-08-06T09:53:04;5.55;;;3.30;;
15476;SDS011;7840;42.702;23.296;2022-08-06T09:55:32;4.10;;;3.10;;
15476;SDS011;7840;42.702;23.296;2022-08-06T09:58:00;3.50;;;3.05;;
15476;SDS011;7840;42.702;23.296;2022-08-06T10:00:28;3.75;;;3.50;;
15476;SDS011;7840;42.702;23.296;2022-08-06T10:02:58;3.50;;;3.20;;
15476;SDS011;7840;42.702;23.296;2022-08-06T10:05:27;4.35;;;3.42;;
15476;SDS011;7840;42.702;23.296;2022-08-06T10:08:05;5.53;;;4.10;;
15476;SDS011;7840;42.702;23.296;2022-08-06T10:10:39;4.53;;;3.50;;
15476;SDS011;7840;42.702;23.296;2022-08-06T10:13:12;4.35;;;3.28;;
15476;SDS011;7840;42.702;23.296;2022-08-06T10:15:42;4.00;;;3.60;;
15476;SDS011;7840;42.702;23.296;2022-08-06T10:18:11;4.28;;;3.85;;
15476;SDS011;7840;42.702;23.296;2022-08-06T10:21:01;3.47;;;3.00;;
15476;SDS011;7840;42.702;23.296;2022-08-06T10:23:33;3.80;;;3.50;;
15476;SDS011;7840;42.702;23.296;2022-08-06T10:26:16;3.90;;;3.55;;
15476;SDS011;7840;42.702;23.296;2022-08-06T10:28:51;3.38;;;3.08;;
15476;SDS011;7840;42.702;23.296;2022-08-06T10:31:20;3.70;;;3.40;;
15476;SDS011;7840;42.702;23.296;2022-08-06T10:33:51;4.32;;;3.28;;
15476;SDS011;7840;42.702;23.296;2022-08-06T10:36:30;5.32;;;3.83;;
15476;SDS011;7840;42.702;23.296;2022-08-06T10:38:55;4.47;;;3.85;;
15476;SDS011;7840;42.702;23.296;2022-08-06T10:41:27;5.45;;;3.30;;
15476;SDS011;7840;42.702;23.296;2022-08-06T10:43:55;3.38;;;3.00;;
15476;SDS011;7840;42.702;23.296;2022-08-06T10:46:25;3.65;;;3.13;;
15476;SDS011;7840;42.702;23.296;2022-08-06T10:48:53;5.82;;;3.40;;
15476;SDS011;7840;42.702;23.296;2022-08-06T10:51:22;10.50;;;3.67;;
15476;SDS011;7840;42.702;23.296;2022-08-06T10:53:57;3.60;;;3.30;;
15476;SDS011;7840;42.702;23.296;2022-08-06T10:56:25;4.75;;;3.30;;
15476;SDS011;7840;42.702;23.296;2022-08-06T10:58:54;3.60;;;3.30;;
15476;SDS011;7840;42.702;23.296;2022-08-06T11:01:26;4.15;;;3.60;;
15476;SDS011;7840;42.702;23.296;2022-08-06T11:04:12;3.97;;;3.58;;
15476;SDS011;7840;42.702;23.296;2022-08-06T11:06:58;4.78;;;2.95;;
15476;SDS011;7840;42.702;23.296;2022-08-06T11:09:44;3.50;;;3.10;;
15476;SDS011;7840;42.702;23.296;2022-08-06T11:12:26;5.22;;;3.35;;
15476;SDS011;7840;42.702;23.296;2022-08-06T11:15:06;6.38;;;3.60;;
15476;SDS011;7840;42.702;23.296;2022-08-06T11:17:41;5.15;;;3.42;;
15476;SDS011;7840;42.702;23.296;2022-08-06T11:25:56;3.85;;;3.50;;
15476;SDS011;7840;42.702;23.296;2022-08-06T11:31:38;5.53;;;2.92;;
15476;SDS011;7840;42.702;23.296;2022-08-06T11:34:19;3.70;;;3.28;;
15476;SDS011;7840;42.702;23.296;2022-08-06T11:37:02;3.63;;;3.33;;
15476;SDS011;7840;42.702;23.296;2022-08-06T11:39:30;4.80;;;3.70;;
15476;SDS011;7840;42.702;23.296;2022-08-06T11:42:45;4.97;;;3.60;;
15476;SDS011;7840;42.702;23.296;2022-08-06T11:45:18;6.60;;;3.85;;
15476;SDS011;7840;42.702;23.296;2022-08-06T11:48:05;4.10;;;3.80;;
15476;SDS011;7840;42.702;23.296;2022-08-06T11:50:33;4.25;;;3.95;;
15476;SDS011;7840;42.702;23.296;2022-08-06T11:53:00;4.43;;;4.03;;
15476;SDS011;7840;42.702;23.296;2022-08-06T11:55:29;4.40;;;3.97;;
15476;SDS011;7840;42.702;23.296;2022-08-06T11:58:19;4.00;;;3.70;;
15476;SDS011;7840;42.702;23.296;2022-08-06T12:00:54;4.15;;;3.70;;
15476;SDS011;7840;42.702;23.296;2022-08-06T12:03:35;4.28;;;3.97;;
15476;SDS011;7840;42.702;23.296;2022-08-06T12:06:17;4.15;;;3.85;;
15476;SDS011;7840;42.702;23.296;2022-08-06T12:11:44;4.38;;;3.97;;
15476;SDS011;7840;42.702;23.296;2022-08-06T12:17:09;4.47;;;4.07;;
15476;SDS011;7840;42.702;23.296;2022-08-06T12:19:42;4.82;;;4.43;;
15476;SDS011;7840;42.702;23.296;2022-08-06T12:22:13;4.30;;;3.90;;
15476;SDS011;7840;42.702;23.296;2022-08-06T12:24:48;4.30;;;3.90;;
15476;SDS011;7840;42.702;23.296;2022-08-06T12:27:17;4.28;;;3.88;;
15476;SDS011;7840;42.702;23.296;2022-08-06T12:29:47;5.18;;;4.63;;
15476;SDS011;7840;42.702;23.296;2022-08-06T12:32:20;5.53;;;3.80;;
15476;SDS011;7840;42.702;23.296;2022-08-06T12:34:50;4.00;;;3.70;;
15476;SDS011;7840;42.702;23.296;2022-08-06T12:37:32;4.13;;;3.83;;
15476;SDS011;7840;42.702;23.296;2022-08-06T12:40:00;4.40;;;3.72;;
15476;SDS011;7840;42.702;23.296;2022-08-06T12:42:46;4.30;;;3.67;;
15476;SDS011;7840;42.702;23.296;2022-08-06T12:45:17;4.43;;;4.10;;
15476;SDS011;7840;42.702;23.296;2022-08-06T12:47:55;4.35;;;3.95;;
15476;SDS011;7840;42.702;23.296;2022-08-06T12:50:24;4.10;;;3.80;;
15476;SDS011;7840;42.702;23.296;2022-08-06T12:53:02;3.72;;;3.38;;
15476;SDS011;7840;42.702;23.296;2022-08-06T12:55:31;4.03;;;3.58;;
15476;SDS011;7840;42.702;23.296;2022-08-06T12:58:00;5.13;;;3.55;;
15476;SDS011;7840;42.702;23.296;2022-08-06T13:00:30;7.50;;;4.75;;
15476;SDS011;7840;42.702;23.296;2022-08-06T13:02:58;3.75;;;3.40;;
15476;SDS011;7840;42.702;23.296;2022-08-06T13:05:26;3.30;;;3.00;;
15476;SDS011;7840;42.702;23.296;2022-08-06T13:07:54;3.85;;;3.55;;
15476;SDS011;7840;42.702;23.296;2022-08-06T13:10:23;4.10;;;3.40;;
15476;SDS011;7840;42.702;23.296;2022-08-06T13:12:55;4.63;;;3.42;;
15476;SDS011;7840;42.702;23.296;2022-08-06T13:15:24;3.40;;;3.10;;
15476;SDS011;7840;42.702;23.296;2022-08-06T13:20:42;3.72;;;3.42;;
15476;SDS011;7840;42.702;23.296;2022-08-06T13:23:12;3.88;;;3.50;;
15476;SDS011;7840;42.702;23.296;2022-08-06T13:25:55;6.18;;;3.70;;
15476;SDS011;7840;42.702;23.296;2022-08-06T13:28:25;5.40;;;3.67;;
15476;SDS011;7840;42.702;23.296;2022-08-06T13:30:52;4.88;;;3.85;;
15476;SDS011;7840;42.702;23.296;2022-08-06T13:33:22;4.47;;;3.65;;
15476;SDS011;7840;42.702;23.296;2022-08-06T13:35:51;5.95;;;4.00;;
15476;SDS011;7840;42.702;23.296;2022-08-06T13:38:32;4.70;;;3.83;;
15476;SDS011;7840;42.702;23.296;2022-08-06T13:41:01;4.60;;;3.90;;
15476;SDS011;7840;42.702;23.296;2022-08-06T13:43:33;10.55;;;4.50;;
15476;SDS011;7840;42.702;23.296;2022-08-06T13:46:15;4.03;;;3.72;;
15476;SDS011;7840;42.702;23.296;2022-08-06T13:48:46;4.20;;;3.90;;
15476;SDS011;7840;42.702;23.296;2022-08-06T13:51:15;4.40;;;4.10;;
15476;SDS011;7840;42.702;23.296;2022-08-06T13:53:43;4.30;;;3.90;;
15476;SDS011;7840;42.702;23.296;2022-08-06T13:56:12;5.03;;;3.88;;
15476;SDS011;7840;42.702;23.296;2022-08-06T13:58:45;5.05;;;3.88;;
15476;SDS011;7840;42.702;23.296;2022-08-06T14:01:16;4.10;;;3.67;;
15476;SDS011;7840;42.702;23.296;2022-08-06T14:03:44;4.55;;;3.72;;
15476;SDS011;7840;42.702;23.296;2022-08-06T14:06:12;4.28;;;3.88;;
15476;SDS011;7840;42.702;23.296;2022-08-06T14:08:40;4.35;;;4.05;;
15476;SDS011;7840;42.702;23.296;2022-08-06T14:11:08;4.28;;;3.90;;
15476;SDS011;7840;42.702;23.296;2022-08-06T14:13:35;4.13;;;3.72;;
15476;SDS011;7840;42.702;23.296;2022-08-06T14:16:03;4.18;;;3.88;;
15476;SDS011;7840;42.702;23.296;2022-08-06T14:18:31;3.92;;;3.67;;
15476;SDS011;7840;42.702;23.296;2022-08-06T14:21:00;4.13;;;3.72;;
15476;SDS011;7840;42.702;23.296;2022-08-06T14:23:28;4.25;;;3.95;;
15476;SDS011;7840;42.702;23.296;2022-08-06T14:25:55;4.20;;;3.80;;
15476;SDS011;7840;42.702;23.296;2022-08-06T14:28:23;4.05;;;3.70;;
15476;SDS011;7840;42.702;23.296;2022-08-06T14:30:51;5.13;;;4.15;;
15476;SDS011;7840;42.702;23.296;2022-08-06T14:33:19;4.50;;;3.72;;
15476;SDS011;7840;42.702;23.296;2022-08-06T14:35:47;4.00;;;3.67;;
15476;SDS011;7840;42.702;23.296;2022-08-06T14:38:16;3.65;;;3.30;;
15476;SDS011;7840;42.702;23.296;2022-08-06T14:40:43;4.80;;;3.90;;
15476;SDS011;7840;42.702;23.296;2022-08-06T14:43:31;4.88;;;4.13;;
15476;SDS011;7840;42.702;23.296;2022-08-06T14:46:15;7.50;;;4.18;;
15476;SDS011;7840;42.702;23.296;2022-08-06T14:48:43;7.03;;;4.22;;
15476;SDS011;7840;42.702;23.296;2022-08-06T14:51:10;5.05;;;4.15;;
15476;SDS011;7840;42.702;23.296;2022-08-06T14:53:39;7.10;;;4.72;;
15476;SDS011;7840;42.702;23.296;2022-08-06T14:56:07;5.68;;;4.13;;
15476;SDS011;7840;42.702;23.296;2022-08-06T14:58:35;4.82;;;3.95;;
15476;SDS011;7840;42.702;23.296;2022-08-06T15:01:02;5.63;;;3.92;;
15476;SDS011;7840;42.702;23.296;2022-08-06T15:03:30;5.60;;;4.60;;
15476;SDS011;7840;42.702;23.296;2022-08-06T15:05:57;4.43;;;4.03;;
15476;SDS011;7840;42.702;23.296;2022-08-06T15:08:26;4.43;;;4.07;;
15476;SDS011;7840;42.702;23.296;2022-08-06T15:10:57;6.63;;;4.13;;
15476;SDS011;7840;42.702;23.296;2022-08-06T15:13:28;5.18;;;4.57;;
15476;SDS011;7840;42.702;23.296;2022-08-06T15:15:55;4.82;;;4.43;;
15476;SDS011;7840;42.702;23.296;2022-08-06T15:18:23;5.13;;;4.07;;
15476;SDS011;7840;42.702;23.296;2022-08-06T15:20:50;4.68;;;4.28;;
15476;SDS011;7840;42.702;23.296;2022-08-06T15:23:18;7.28;;;4.22;;
15476;SDS011;7840;42.702;23.296;2022-08-06T15:25:46;4.70;;;4.30;;
15476;SDS011;7840;42.702;23.296;2022-08-06T15:28:15;4.53;;;4.22;;
15476;SDS011;7840;42.702;23.296;2022-08-06T15:30:43;4.30;;;4.00;;
15476;SDS011;7840;42.702;23.296;2022-08-06T15:33:11;5.75;;;4.40;;
15476;SDS011;7840;42.702;23.296;2022-08-06T15:35:38;4.50;;;4.20;;
15476;SDS011;7840;42.702;23.296;2022-08-06T15:38:06;7.97;;;4.78;;